Time;durP1;ratioP1;P1;durP2;ratioP2;P2;SDS_P1;SDS_P2;PMS_P1;PMS_P2;Temp;Humidity;BMP_temperature;BMP_pressure;BME280_temperature;BME280_humidity;BME280_pressure;Samples;Min_cycle;Max_cycle;Signal;HPM_P1;HPM_P2
2023/03/30 00:02:17;;;;;;;5.25;2.42;;;;;;;;;;6144263;23;19912;-78
2023/03/30 00:04:43;;;;;;;5.32;2.80;;;;;;;;;;6120395;23;20021;-79
2023/03/30 00:07:09;;;;;;;5.70;3.00;;;;;;;;;;6118828;23;20028;-78
2023/03/30 00:09:41;;;;;;;7.53;2.95;;;;;;;;;;6094721;23;20018;-78
2023/03/30 00:12:07;;;;;;;5.72;3.00;;;;;;;;;;6120177;23;20024;-78
2023/03/30 00:14:36;;;;;;;5.13;3.30;;;;;;;;;;6119259;23;20025;-78
2023/03/30 00:17:03;;;;;;;5.35;2.90;;;;;;;;;;6144769;23;20018;-78
2023/03/30 00:19:28;;;;;;;5.85;3.45;;;;;;;;;;6118852;23;20017;-79
2023/03/30 00:21:53;;;;;;;6.45;3.20;;;;;;;;;;6119131;23;20380;-78
2023/03/30 00:24:19;;;;;;;6.80;3.10;;;;;;;;;;6146498;23;20068;-78
2023/03/30 00:26:44;;;;;;;5.25;3.03;;;;;;;;;;6144447;23;20017;-78
2023/03/30 00:29:10;;;;;;;6.28;3.38;;;;;;;;;;6119966;23;20021;-80
2023/03/30 00:31:36;;;;;;;7.05;3.03;;;;;;;;;;6094272;23;20025;-78
2023/03/30 00:34:01;;;;;;;5.45;3.03;;;;;;;;;;6120040;23;20013;-78
2023/03/30 00:36:26;;;;;;;6.00;3.33;;;;;;;;;;6118671;23;20021;-78
2023/03/30 00:38:52;;;;;;;6.22;3.30;;;;;;;;;;6145166;23;20021;-78
2023/03/30 00:41:17;;;;;;;5.72;3.25;;;;;;;;;;6119572;23;20148;-78
2023/03/30 00:43:58;;;;;;;8.73;3.53;;;;;;;;;;6119631;23;20422;-78
2023/03/30 00:46:23;;;;;;;7.22;3.53;;;;;;;;;;6118037;23;20489;-78
2023/03/30 00:48:49;;;;;;;8.35;3.15;;;;;;;;;;6146207;23;20021;-78
2023/03/30 00:51:14;;;;;;;5.43;3.25;;;;;;;;;;6118942;23;20340;-78
2023/03/30 00:53:46;;;;;;;5.78;3.42;;;;;;;;;;6145412;23;20351;-78
2023/03/30 00:56:14;;;;;;;6.43;3.30;;;;;;;;;;6094535;23;20017;-78
2023/03/30 00:58:40;;;;;;;7.55;3.25;;;;;;;;;;6119623;23;20089;-78
2023/03/30 01:01:09;;;;;;;8.38;3.60;;;;;;;;;;6144301;23;20020;-78
2023/03/30 01:03:44;;;;;;;6.60;3.03;;;;;;;;;;6119638;23;20026;-78
2023/03/30 01:06:11;;;;;;;6.60;3.42;;;;;;;;;;6118893;23;20068;-78
2023/03/30 01:08:37;;;;;;;6.13;3.40;;;;;;;;;;6119428;23;20037;-78
2023/03/30 01:11:06;;;;;;;7.22;3.58;;;;;;;;;;6118361;23;20420;-78
2023/03/30 01:13:36;;;;;;;6.88;3.53;;;;;;;;;;6119050;23;20523;-78
2023/03/30 01:16:04;;;;;;;6.75;3.50;;;;;;;;;;6144698;23;20331;-78
2023/03/30 01:18:53;;;;;;;5.82;3.08;;;;;;;;;;6145516;23;20026;-78
2023/03/30 01:21:40;;;;;;;5.85;3.22;;;;;;;;;;6118253;23;20021;-78
2023/03/30 01:24:15;;;;;;;6.78;3.63;;;;;;;;;;6145298;23;20021;-77
2023/03/30 01:26:48;;;;;;;5.85;3.53;;;;;;;;;;6144713;23;20026;-79
2023/03/30 01:29:41;;;;;;;7.82;3.42;;;;;;;;;;6119617;23;20006;-79
2023/03/30 01:32:32;;;;;;;7.38;3.40;;;;;;;;;;6118409;23;20491;-78
2023/03/30 01:35:31;;;;;;;6.53;3.20;;;;;;;;;;6084872;23;20021;-78
2023/03/30 01:38:21;;;;;;;7.00;3.55;;;;;;;;;;6145906;23;20459;-78
2023/03/30 01:41:06;;;;;;;5.95;3.53;;;;;;;;;;6094262;23;20013;-78
2023/03/30 01:43:51;;;;;;;7.78;4.03;;;;;;;;;;6145056;23;20060;-78
2023/03/30 01:46:32;;;;;;;7.03;3.47;;;;;;;;;;6094667;23;20045;-79
2023/03/30 01:49:22;;;;;;;7.93;3.47;;;;;;;;;;6120230;23;20080;-78
2023/03/30 01:52:12;;;;;;;6.13;3.50;;;;;;;;;;6127466;23;20022;-78
2023/03/30 01:54:43;;;;;;;8.90;3.97;;;;;;;;;;6121025;23;20018;-78
2023/03/30 01:57:16;;;;;;;8.85;3.78;;;;;;;;;;6095830;23;20658;-79
2023/03/30 01:59:55;;;;;;;5.90;3.63;;;;;;;;;;6121064;23;20037;-79
2023/03/30 02:02:22;;;;;;;6.07;3.40;;;;;;;;;;6096086;23;20392;-78
2023/03/30 02:04:52;;;;;;;7.40;4.25;;;;;;;;;;6120975;23;20092;-78
2023/03/30 02:07:22;;;;;;;6.82;3.25;;;;;;;;;;6096712;23;20018;-79
2023/03/30 02:09:49;;;;;;;5.97;3.70;;;;;;;;;;6121577;23;20474;-78
2023/03/30 02:12:15;;;;;;;9.30;3.80;;;;;;;;;;6120127;23;20029;-79
2023/03/30 02:14:41;;;;;;;9.13;4.18;;;;;;;;;;6096744;23;20017;-78
2023/03/30 02:17:11;;;;;;;6.15;3.55;;;;;;;;;;6090938;23;20462;-78
2023/03/30 02:19:37;;;;;;;7.35;4.30;;;;;;;;;;6146792;23;20026;-79
2023/03/30 02:22:03;;;;;;;8.18;3.75;;;;;;;;;;6119741;23;20080;-79
2023/03/30 02:24:31;;;;;;;6.57;3.85;;;;;;;;;;6120836;23;20020;-78
2023/03/30 02:26:58;;;;;;;6.82;3.78;;;;;;;;;;6120456;23;20387;-79
2023/03/30 02:29:23;;;;;;;7.33;3.93;;;;;;;;;;6120879;23;20010;-79
2023/03/30 02:31:52;;;;;;;7.57;3.58;;;;;;;;;;6146372;23;20093;-79
2023/03/30 02:34:29;;;;;;;6.55;3.60;;;;;;;;;;6146839;23;20474;-79
2023/03/30 02:36:55;;;;;;;;;;;;;;;;;;6120560;23;20041;-79
2023/03/30 02:39:33;;;;;;;5.57;3.80;;;;;;;;;;6147391;23;19968;-79
2023/03/30 02:42:37;;;;;;;5.72;3.20;;;;;;;;;;6146538;23;20605;-79
2023/03/30 02:45:20;;;;;;;6.70;3.33;;;;;;;;;;6121016;23;20010;-79
2023/03/30 02:48:16;;;;;;;6.88;3.80;;;;;;;;;;6120511;23;20021;-79
2023/03/30 02:51:00;;;;;;;6.57;3.63;;;;;;;;;;6119624;23;20088;-78
2023/03/30 02:53:45;;;;;;;6.28;3.85;;;;;;;;;;6120521;23;20044;-78
2023/03/30 02:56:13;;;;;;;5.78;3.45;;;;;;;;;;6119673;23;20039;-79
2023/03/30 02:58:55;;;;;;;7.03;3.67;;;;;;;;;;6145893;23;20456;-78
2023/03/30 03:01:39;;;;;;;7.07;4.45;;;;;;;;;;6119728;23;20025;-78
2023/03/30 03:04:06;;;;;;;6.15;3.60;;;;;;;;;;6146349;23;20013;-78
2023/03/30 03:06:31;;;;;;;6.05;3.47;;;;;;;;;;6095353;23;20481;-79
2023/03/30 03:08:57;;;;;;;5.88;3.60;;;;;;;;;;6120841;23;20037;-79
2023/03/30 03:11:23;;;;;;;6.15;3.58;;;;;;;;;;6119683;23;20447;-79
2023/03/30 03:13:49;;;;;;;6.18;3.42;;;;;;;;;;6095751;23;20023;-79
2023/03/30 03:16:15;;;;;;;7.90;3.58;;;;;;;;;;6119444;23;20404;-79
2023/03/30 03:18:40;;;;;;;6.82;4.05;;;;;;;;;;6120178;23;20092;-79
2023/03/30 03:21:07;;;;;;;9.80;3.65;;;;;;;;;;6145344;23;20017;-79
2023/03/30 03:23:33;;;;;;;8.43;4.07;;;;;;;;;;6120045;23;20049;-79
2023/03/30 03:25:59;;;;;;;6.75;3.78;;;;;;;;;;6144975;23;20116;-79
2023/03/30 03:28:26;;;;;;;6.50;3.90;;;;;;;;;;6120453;23;20088;-79
2023/03/30 03:30:52;;;;;;;7.68;3.88;;;;;;;;;;6095120;23;20020;-79
2023/03/30 03:33:19;;;;;;;7.55;3.70;;;;;;;;;;6095781;23;20359;-78
2023/03/30 03:35:44;;;;;;;5.88;3.30;;;;;;;;;;6119353;23;20017;-79
2023/03/30 03:38:11;;;;;;;6.65;3.85;;;;;;;;;;6119540;23;20096;-80
2023/03/30 03:40:36;;;;;;;4.85;3.05;;;;;;;;;;6119194;23;20104;-79
2023/03/30 03:43:02;;;;;;;5.35;3.13;;;;;;;;;;6119951;23;20056;-79
2023/03/30 03:45:27;;;;;;;6.78;3.92;;;;;;;;;;6094098;23;20021;-79
2023/03/30 03:47:53;;;;;;;5.72;3.38;;;;;;;;;;6120128;23;20057;-80
2023/03/30 03:50:19;;;;;;;6.38;3.70;;;;;;;;;;6145657;23;20021;-79
2023/03/30 03:52:45;;;;;;;7.45;3.83;;;;;;;;;;6120184;23;20025;-79
2023/03/30 03:55:11;;;;;;;5.80;3.40;;;;;;;;;;6117860;23;20045;-79
2023/03/30 03:57:37;;;;;;;6.90;3.97;;;;;;;;;;6120470;23;20021;-79
2023/03/30 04:00:04;;;;;;;7.57;3.55;;;;;;;;;;6119954;23;20064;-79
2023/03/30 04:02:29;;;;;;;6.57;3.92;;;;;;;;;;6094327;23;20591;-75
2023/03/30 04:04:56;;;;;;;8.05;4.20;;;;;;;;;;6119982;23;20020;-75
2023/03/30 04:07:24;;;;;;;11.07;4.10;;;;;;;;;;6094539;23;20036;-77
2023/03/30 04:09:50;;;;;;;7.75;3.80;;;;;;;;;;6119726;23;20014;-77
2023/03/30 04:12:15;;;;;;;7.22;4.15;;;;;;;;;;6093971;23;20068;-79
2023/03/30 04:14:40;;;;;;;7.35;4.20;;;;;;;;;;6094068;23;20104;-78
2023/03/30 04:17:06;;;;;;;6.82;3.85;;;;;;;;;;6119000;23;20037;-78
2023/03/30 04:19:31;;;;;;;7.13;4.32;;;;;;;;;;6119426;23;20025;-78
2023/03/30 04:21:57;;;;;;;9.18;4.07;;;;;;;;;;6118548;23;20118;-78
2023/03/30 04:24:24;;;;;;;8.68;4.45;;;;;;;;;;6095566;23;20435;-78
2023/03/30 04:26:50;;;;;;;9.52;4.25;;;;;;;;;;6119161;23;20124;-78
2023/03/30 04:29:21;;;;;;;7.63;3.95;;;;;;;;;;6119434;23;20049;-78
2023/03/30 04:31:47;;;;;;;8.70;4.40;;;;;;;;;;6119289;23;20016;-78
2023/03/30 04:34:12;;;;;;;8.02;3.70;;;;;;;;;;6119688;23;20342;-78
2023/03/30 04:36:42;;;;;;;9.20;4.47;;;;;;;;;;6144024;23;20013;-81
2023/03/30 04:39:10;;;;;;;9.18;4.65;;;;;;;;;;6120802;23;20014;-82
2023/03/30 04:41:36;;;;;;;9.63;4.75;;;;;;;;;;6093955;23;20030;-82
2023/03/30 04:44:03;;;;;;;10.15;4.43;;;;;;;;;;6118703;23;20555;-81
2023/03/30 04:46:29;;;;;;;7.00;4.03;;;;;;;;;;6144018;23;20020;-81
2023/03/30 04:48:54;;;;;;;7.85;4.20;;;;;;;;;;6119517;23;20018;-82
2023/03/30 04:51:20;;;;;;;8.85;4.30;;;;;;;;;;6119333;23;20017;-80
2023/03/30 04:53:46;;;;;;;8.63;4.55;;;;;;;;;;6119489;23;20040;-80
2023/03/30 04:56:12;;;;;;;7.78;4.40;;;;;;;;;;6117984;23;20021;-81
2023/03/30 04:58:38;;;;;;;8.65;4.50;;;;;;;;;;6145451;23;20065;-79
2023/03/30 05:01:03;;;;;;;7.57;4.53;;;;;;;;;;6143846;23;20451;-78
2023/03/30 05:03:29;;;;;;;8.43;4.28;;;;;;;;;;6119300;23;20017;-79
2023/03/30 05:05:55;;;;;;;7.25;3.97;;;;;;;;;;6118924;23;20502;-79
2023/03/30 05:08:21;;;;;;;10.77;4.43;;;;;;;;;;6120099;23;20559;-79
2023/03/30 05:10:46;;;;;;;9.18;4.30;;;;;;;;;;6118272;23;20021;-81
2023/03/30 05:13:15;;;;;;;7.18;4.10;;;;;;;;;;6118829;23;20044;-81
2023/03/30 05:15:41;;;;;;;9.07;4.28;;;;;;;;;;6093437;23;20064;-81
2023/03/30 05:18:06;;;;;;;7.35;3.97;;;;;;;;;;6118938;23;20010;-81
2023/03/30 05:20:32;;;;;;;9.00;4.05;;;;;;;;;;6093463;23;20451;-81
2023/03/30 05:22:57;;;;;;;7.00;3.88;;;;;;;;;;6095301;23;20100;-81
2023/03/30 05:25:23;;;;;;;10.27;4.70;;;;;;;;;;6120168;23;20055;-81
2023/03/30 05:27:48;;;;;;;6.90;3.95;;;;;;;;;;6122127;23;20096;-81
2023/03/30 05:30:14;;;;;;;7.65;4.00;;;;;;;;;;6146872;23;20032;-81
2023/03/30 05:32:39;;;;;;;8.55;4.25;;;;;;;;;;6146051;23;20052;-81
2023/03/30 05:35:05;;;;;;;7.03;3.83;;;;;;;;;;6120465;23;20009;-80
2023/03/30 05:37:30;;;;;;;7.40;4.10;;;;;;;;;;6120889;23;20022;-81
2023/03/30 05:39:56;;;;;;;7.90;4.25;;;;;;;;;;6121251;23;20033;-81
2023/03/30 05:42:21;;;;;;;6.88;3.83;;;;;;;;;;6095748;23;20025;-81
2023/03/30 05:44:47;;;;;;;8.68;4.03;;;;;;;;;;6121076;23;20040;-81
2023/03/30 05:47:12;;;;;;;8.50;3.95;;;;;;;;;;6119885;23;20064;-81
2023/03/30 05:49:37;;;;;;;6.93;3.65;;;;;;;;;;6096283;23;20394;-81
2023/03/30 05:52:03;;;;;;;7.40;3.83;;;;;;;;;;6095530;23;20017;-81
2023/03/30 05:54:28;;;;;;;8.30;4.40;;;;;;;;;;6096645;23;20010;-81
2023/03/30 05:56:54;;;;;;;6.20;3.25;;;;;;;;;;6095300;23;20013;-81
2023/03/30 05:59:20;;;;;;;7.75;3.75;;;;;;;;;;6121724;23;20017;-81
2023/03/30 06:01:46;;;;;;;7.13;3.60;;;;;;;;;;6119638;23;20014;-82
2023/03/30 06:04:12;;;;;;;8.20;3.92;;;;;;;;;;6096711;23;20028;-80
2023/03/30 06:06:37;;;;;;;7.95;3.65;;;;;;;;;;6119916;23;20028;-80
2023/03/30 06:09:03;;;;;;;6.78;3.50;;;;;;;;;;6120094;23;20025;-81
2023/03/30 06:11:30;;;;;;;9.57;3.90;;;;;;;;;;6095942;23;20018;-81
2023/03/30 06:13:56;;;;;;;10.82;4.15;;;;;;;;;;6096139;23;20027;-80
2023/03/30 06:16:21;;;;;;;7.55;3.92;;;;;;;;;;6118479;23;20096;-81
2023/03/30 06:18:47;;;;;;;7.03;3.70;;;;;;;;;;6145772;23;20342;-81
2023/03/30 06:21:12;;;;;;;6.15;3.10;;;;;;;;;;6119213;23;21923;-81
2023/03/30 06:23:39;;;;;;;6.38;3.80;;;;;;;;;;6120745;23;20092;-81
2023/03/30 06:26:06;;;;;;;6.53;3.70;;;;;;;;;;6119999;23;20025;-80
2023/03/30 06:28:32;;;;;;;7.13;3.80;;;;;;;;;;6121310;23;20347;-80
2023/03/30 06:31:00;;;;;;;5.97;3.53;;;;;;;;;;6119576;23;20009;-81
2023/03/30 06:33:26;;;;;;;;;;;;;;;;;;6120904;23;20068;-80
2023/03/30 06:35:53;;;;;;;7.43;3.50;;;;;;;;;;6169091;23;19912;-81
2023/03/30 06:38:21;;;;;;;9.05;4.28;;;;;;;;;;6120922;23;20356;-80
2023/03/30 06:40:47;;;;;;;7.72;3.88;;;;;;;;;;6118855;23;20157;-80
2023/03/30 06:43:16;;;;;;;7.97;3.67;;;;;;;;;;6095761;23;20080;-80
2023/03/30 06:45:47;;;;;;;7.68;4.05;;;;;;;;;;6119402;23;20388;-80
2023/03/30 06:48:13;;;;;;;8.45;3.80;;;;;;;;;;6120786;23;20699;-80
2023/03/30 06:50:39;;;;;;;6.28;3.70;;;;;;;;;;6119178;23;20018;-80
2023/03/30 06:53:04;;;;;;;7.47;3.30;;;;;;;;;;6120917;23;20013;-80
2023/03/30 06:55:30;;;;;;;7.78;3.63;;;;;;;;;;6094959;23;20017;-82
2023/03/30 06:57:55;;;;;;;6.78;3.67;;;;;;;;;;6121044;23;20380;-81
2023/03/30 07:00:21;;;;;;;6.95;3.72;;;;;;;;;;6145563;23;20028;-81
2023/03/30 07:02:46;;;;;;;6.15;3.30;;;;;;;;;;6095194;23;20074;-82
2023/03/30 07:05:14;;;;;;;9.10;4.07;;;;;;;;;;6119302;23;20073;-81
2023/03/30 07:07:39;;;;;;;;;;;;;;;;;;6120936;23;20033;-80
2023/03/30 07:10:09;;;;;;;7.55;3.88;;;;;;;;;;6119920;23;19931;-83
2023/03/30 07:12:35;;;;;;;7.75;3.40;;;;;;;;;;6145476;23;20028;-82
2023/03/30 07:15:01;;;;;;;5.18;2.83;;;;;;;;;;6146265;23;20020;-82
2023/03/30 07:17:26;;;;;;;6.82;3.55;;;;;;;;;;6094977;23;20010;-82
2023/03/30 07:19:52;;;;;;;5.85;3.05;;;;;;;;;;6120640;23;20028;-80
2023/03/30 07:22:17;;;;;;;6.07;3.17;;;;;;;;;;6095002;23;20037;-80
2023/03/30 07:24:43;;;;;;;6.88;3.30;;;;;;;;;;6146284;23;20406;-80
2023/03/30 07:27:09;;;;;;;8.73;3.60;;;;;;;;;;6094738;23;20641;-81
2023/03/30 07:29:35;;;;;;;5.93;3.25;;;;;;;;;;6095002;23;20052;-80
2023/03/30 07:32:02;;;;;;;5.78;2.92;;;;;;;;;;6094602;23;20009;-81
2023/03/30 07:34:27;;;;;;;6.68;2.80;;;;;;;;;;6096021;23;20024;-81
2023/03/30 07:36:53;;;;;;;7.80;3.72;;;;;;;;;;6119248;23;20013;-81
2023/03/30 07:39:18;;;;;;;8.70;2.70;;;;;;;;;;6120651;23;20025;-81
2023/03/30 07:41:44;;;;;;;5.07;2.60;;;;;;;;;;6094020;23;20506;-82
2023/03/30 07:44:09;;;;;;;6.50;3.13;;;;;;;;;;6119150;23;20027;-81
2023/03/30 07:46:36;;;;;;;6.03;2.83;;;;;;;;;;6118726;23;20025;-80
2023/03/30 07:49:01;;;;;;;5.85;2.85;;;;;;;;;;6145111;23;20038;-81
2023/03/30 07:51:27;;;;;;;6.18;2.97;;;;;;;;;;6118280;23;20774;-81
2023/03/30 07:53:52;;;;;;;5.25;2.30;;;;;;;;;;6120020;23;20017;-81
2023/03/30 07:56:18;;;;;;;4.07;1.98;;;;;;;;;;6118863;23;20021;-81
2023/03/30 07:58:43;;;;;;;4.20;2.00;;;;;;;;;;6146056;23;20024;-80
2023/03/30 08:01:09;;;;;;;3.92;2.20;;;;;;;;;;6144567;23;20016;-81
2023/03/30 08:03:35;;;;;;;5.35;2.22;;;;;;;;;;6145420;23;20683;-81
2023/03/30 08:06:05;;;;;;;5.18;2.00;;;;;;;;;;6118859;23;20092;-80
2023/03/30 08:08:32;;;;;;;4.22;2.38;;;;;;;;;;6120099;23;20460;-81
2023/03/30 08:10:57;;;;;;;4.00;1.90;;;;;;;;;;6118604;23;20447;-81
2023/03/30 08:13:23;;;;;;;3.53;1.67;;;;;;;;;;6095541;23;20021;-81
2023/03/30 08:15:49;;;;;;;4.63;1.90;;;;;;;;;;6094416;23;20018;-81
2023/03/30 08:18:15;;;;;;;3.20;1.50;;;;;;;;;;6095699;23;20021;-80
2023/03/30 08:20:41;;;;;;;4.22;1.80;;;;;;;;;;6119138;23;20617;-80
2023/03/30 08:23:09;;;;;;;4.50;1.80;;;;;;;;;;6119795;23;20020;-81
2023/03/30 08:25:35;;;;;;;;;;;;;;;;;;6094789;23;20044;-80
2023/03/30 08:28:01;;;;;;;3.60;1.60;;;;;;;;;;6143972;23;19917;-80
2023/03/30 08:30:26;;;;;;;6.63;1.65;;;;;;;;;;6094505;23;20014;-80
2023/03/30 08:32:52;;;;;;;5.53;1.70;;;;;;;;;;6095641;23;20471;-81
2023/03/30 08:35:19;;;;;;;4.60;1.70;;;;;;;;;;6144370;23;20009;-81
2023/03/30 08:37:44;;;;;;;4.35;1.42;;;;;;;;;;6118706;23;20021;-81
2023/03/30 08:40:11;;;;;;;3.45;1.35;;;;;;;;;;6118886;23;20732;-81
2023/03/30 08:43:05;;;;;;;3.53;1.30;;;;;;;;;;6099026;23;20061;-81
2023/03/30 08:45:35;;;;;;;4.72;1.50;;;;;;;;;;6089429;23;20021;-81
2023/03/30 08:48:01;;;;;;;3.78;1.48;;;;;;;;;;6090312;23;20014;-81
2023/03/30 08:50:31;;;;;;;2.80;1.20;;;;;;;;;;6065230;23;20021;-81
2023/03/30 08:52:57;;;;;;;3.20;1.20;;;;;;;;;;6089865;23;20621;-81
2023/03/30 08:55:30;;;;;;;4.18;1.50;;;;;;;;;;6089092;23;20120;-81
2023/03/30 08:58:05;;;;;;;4.43;1.35;;;;;;;;;;6115884;23;20021;-81
2023/03/30 09:00:39;;;;;;;3.85;1.52;;;;;;;;;;6066918;23;20341;-81
2023/03/30 09:03:27;;;;;;;5.13;1.42;;;;;;;;;;6091446;23;20464;-82
2023/03/30 09:06:02;;;;;;;3.58;1.73;;;;;;;;;;6066845;23;20515;-81
2023/03/30 09:08:30;;;;;;;4.22;1.42;;;;;;;;;;6092074;23;20022;-80
2023/03/30 09:10:58;;;;;;;3.65;1.20;;;;;;;;;;6090887;23;20018;-81
2023/03/30 09:13:28;;;;;;;3.80;1.38;;;;;;;;;;6092301;23;20478;-79
2023/03/30 09:15:55;;;;;;;3.53;1.55;;;;;;;;;;6091469;23;20803;-80
2023/03/30 09:18:28;;;;;;;;;;;;;;;;;;6093123;23;20123;-81
2023/03/30 09:20:56;;;;;;;4.40;1.58;;;;;;;;;;6090276;23;19952;-80
2023/03/30 09:23:23;;;;;;;5.80;1.52;;;;;;;;;;6068322;23;20455;-81
2023/03/30 09:26:10;;;;;;;5.32;1.60;;;;;;;;;;6091676;23;20467;-81
2023/03/30 09:28:56;;;;;;;5.40;1.60;;;;;;;;;;6117152;23;20060;-82
2023/03/30 09:31:35;;;;;;;3.85;1.40;;;;;;;;;;6117015;23;20018;-82
2023/03/30 09:34:27;;;;;;;4.93;1.70;;;;;;;;;;6091036;23;20060;-82
2023/03/30 09:37:12;;;;;;;6.75;1.60;;;;;;;;;;6115063;23;20351;-82
2023/03/30 09:39:40;;;;;;;7.53;1.92;;;;;;;;;;6118090;23;20025;-82
2023/03/30 09:42:23;;;;;;;4.63;1.80;;;;;;;;;;6097726;23;20024;-82
2023/03/30 09:44:58;;;;;;;3.85;1.42;;;;;;;;;;6146490;23;20455;-81
2023/03/30 09:47:24;;;;;;;3.53;1.48;;;;;;;;;;6104624;23;20080;-81
2023/03/30 09:50:01;;;;;;;4.70;1.75;;;;;;;;;;6148045;23;20021;-82
2023/03/30 09:52:28;;;;;;;3.90;1.50;;;;;;;;;;6119109;23;20021;-84
2023/03/30 09:54:54;;;;;;;4.15;1.50;;;;;;;;;;6120174;23;20020;-80
2023/03/30 09:57:31;;;;;;;3.50;1.30;;;;;;;;;;6120650;23;20009;-83
2023/03/30 09:59:58;;;;;;;3.72;1.13;;;;;;;;;;6146819;23;20088;-82
2023/03/30 10:02:26;;;;;;;3.53;1.70;;;;;;;;;;6142620;23;20037;-82
2023/03/30 10:04:51;;;;;;;5.95;1.20;;;;;;;;;;6120419;23;20021;-83
2023/03/30 10:07:29;;;;;;;3.78;1.38;;;;;;;;;;6146038;23;20462;-81
2023/03/30 10:09:54;;;;;;;;;;;;;;;;;;6120048;23;20017;-82
2023/03/30 10:12:21;;;;;;;2.78;1.10;;;;;;;;;;6169981;23;20259;-82
2023/03/30 10:14:52;;;;;;;4.97;1.60;;;;;;;;;;6120927;23;20401;-82
2023/03/30 10:17:23;;;;;;;5.50;1.58;;;;;;;;;;6095549;23;20072;-82
2023/03/30 10:19:52;;;;;;;5.18;1.45;;;;;;;;;;6095636;23;20048;-82
2023/03/30 10:22:23;;;;;;;3.13;1.30;;;;;;;;;;6120468;23;20088;-82
2023/03/30 10:24:51;;;;;;;5.25;1.13;;;;;;;;;;6135432;23;20022;-82
2023/03/30 10:27:17;;;;;;;4.93;1.40;;;;;;;;;;6142504;23;20022;-82
2023/03/30 10:29:49;;;;;;;3.53;1.23;;;;;;;;;;6119880;23;20017;-82
2023/03/30 10:32:17;;;;;;;4.07;1.33;;;;;;;;;;6120228;23;20392;-82
2023/03/30 10:34:53;;;;;;;3.85;1.30;;;;;;;;;;6096046;23;20029;-82
2023/03/30 10:37:30;;;;;;;8.27;1.50;;;;;;;;;;6118736;23;20020;-82
2023/03/30 10:39:57;;;;;;;3.57;1.10;;;;;;;;;;6145379;23;20088;-81
2023/03/30 10:42:24;;;;;;;2.95;1.33;;;;;;;;;;6116920;23;20261;-82
2023/03/30 10:44:52;;;;;;;6.63;1.83;;;;;;;;;;6096099;23;20403;-82
2023/03/30 10:47:17;;;;;;;4.13;1.38;;;;;;;;;;6144952;23;20084;-82
2023/03/30 10:49:58;;;;;;;4.85;1.50;;;;;;;;;;6145701;23;20017;-82
2023/03/30 10:52:48;;;;;;;5.50;1.40;;;;;;;;;;6118550;23;20021;-81
2023/03/30 10:55:14;;;;;;;5.72;1.50;;;;;;;;;;6145306;23;20317;-81
2023/03/30 10:58:06;;;;;;;4.40;1.40;;;;;;;;;;6095380;23;20478;-82
2023/03/30 11:00:53;;;;;;;6.47;1.40;;;;;;;;;;6143561;23;20029;-82
2023/03/30 11:03:28;;;;;;;4.22;1.70;;;;;;;;;;6119408;23;20028;-82
2023/03/30 11:05:58;;;;;;;4.78;1.30;;;;;;;;;;6119455;23;20013;-81
2023/03/30 11:08:28;;;;;;;4.38;1.50;;;;;;;;;;6146008;23;20009;-81
2023/03/30 11:10:55;;;;;;;3.58;1.30;;;;;;;;;;6118852;23;20375;-82
2023/03/30 11:13:34;;;;;;;3.42;1.40;;;;;;;;;;6094947;23;20044;-82
2023/03/30 11:16:06;;;;;;;4.45;1.30;;;;;;;;;;6118822;23;20021;-82
2023/03/30 11:18:40;;;;;;;4.60;1.52;;;;;;;;;;6144774;23;20375;-82
2023/03/30 11:21:18;;;;;;;5.28;1.30;;;;;;;;;;6094329;23;20359;-82
2023/03/30 11:23:55;;;;;;;4.03;1.38;;;;;;;;;;6119607;23;20387;-83
2023/03/30 11:26:31;;;;;;;3.40;1.45;;;;;;;;;;6119955;23;20085;-82
2023/03/30 11:29:11;;;;;;;4.57;1.30;;;;;;;;;;6119893;23;20013;-81
2023/03/30 11:31:46;;;;;;;4.75;1.58;;;;;;;;;;6145006;23;20052;-82
2023/03/30 11:34:26;;;;;;;3.65;1.35;;;;;;;;;;6145787;23;20018;-82
2023/03/30 11:37:16;;;;;;;8.18;2.35;;;;;;;;;;6118870;23;20021;-82
2023/03/30 11:39:48;;;;;;;5.65;1.25;;;;;;;;;;6119420;23;20775;-82
2023/03/30 11:42:29;;;;;;;3.65;1.45;;;;;;;;;;6118494;23;20475;-82
2023/03/30 11:44:55;;;;;;;5.35;1.58;;;;;;;;;;6094890;23;20013;-81
2023/03/30 11:47:33;;;;;;;5.03;1.50;;;;;;;;;;6094951;23;20049;-82
2023/03/30 11:50:19;;;;;;;;;;;;;;;;;;6146091;23;20039;-82
2023/03/30 11:53:04;;;;;;;4.28;1.20;;;;;;;;;;6169314;23;22401;-82
2023/03/30 11:55:43;;;;;;;5.57;1.50;;;;;;;;;;6144814;23;20005;-81
2023/03/30 11:58:15;;;;;;;6.30;1.27;;;;;;;;;;6119590;23;20009;-82
2023/03/30 12:00:56;;;;;;;4.85;1.20;;;;;;;;;;6094954;23;20534;-82
2023/03/30 12:03:38;;;;;;;5.32;1.58;;;;;;;;;;6146476;23;20443;-82
2023/03/30 12:06:31;;;;;;;3.85;1.30;;;;;;;;;;6118509;23;20336;-82
2023/03/30 12:08:59;;;;;;;7.55;1.52;;;;;;;;;;6119127;23;20197;-82
2023/03/30 12:11:38;;;;;;;6.80;1.58;;;;;;;;;;6119425;23;20028;-80
2023/03/30 12:14:29;;;;;;;4.38;1.30;;;;;;;;;;6094837;23;20148;-83
2023/03/30 12:17:00;;;;;;;4.90;1.20;;;;;;;;;;6095202;23;20025;-82
2023/03/30 12:19:31;;;;;;;4.75;1.40;;;;;;;;;;6095868;23;20017;-82
2023/03/30 12:22:00;;;;;;;6.30;1.40;;;;;;;;;;6095545;23;20041;-83
2023/03/30 12:24:26;;;;;;;4.63;1.52;;;;;;;;;;6120062;23;20014;-83
2023/03/30 12:26:51;;;;;;;4.13;1.45;;;;;;;;;;6120006;23;20418;-83
2023/03/30 12:29:18;;;;;;;3.83;1.33;;;;;;;;;;6119839;23;20017;-83
2023/03/30 12:31:57;;;;;;;5.30;1.52;;;;;;;;;;6118955;23;20028;-83
2023/03/30 12:34:26;;;;;;;4.45;1.50;;;;;;;;;;6119151;23;20013;-83
2023/03/30 12:37:11;;;;;;;8.57;1.48;;;;;;;;;;6095061;23;20024;-82
2023/03/30 12:39:43;;;;;;;7.82;1.63;;;;;;;;;;6145497;23;20097;-82
2023/03/30 12:42:34;;;;;;;4.25;1.30;;;;;;;;;;6144486;23;20018;-82
2023/03/30 12:45:15;;;;;;;5.32;1.30;;;;;;;;;;6145784;23;20463;-82
2023/03/30 12:47:52;;;;;;;5.35;1.58;;;;;;;;;;6119386;23;20629;-82
2023/03/30 12:50:30;;;;;;;5.22;1.20;;;;;;;;;;6118681;23;20017;-83
2023/03/30 12:53:08;;;;;;;6.05;1.35;;;;;;;;;;6145939;23;20048;-82
2023/03/30 12:55:43;;;;;;;2.53;1.00;;;;;;;;;;6144334;23;20096;-81
2023/03/30 12:58:30;;;;;;;6.05;1.42;;;;;;;;;;6119400;23;20510;-81
2023/03/30 13:01:15;;;;;;;5.47;1.27;;;;;;;;;;6144848;23;20024;-81
2023/03/30 13:03:51;;;;;;;3.67;1.20;;;;;;;;;;6144705;23;20025;-85
2023/03/30 13:06:22;;;;;;;5.00;1.70;;;;;;;;;;6119019;23;20072;-83
2023/03/30 13:08:55;;;;;;;3.42;1.42;;;;;;;;;;6119192;23;20029;-84
2023/03/30 13:11:21;;;;;;;4.63;1.40;;;;;;;;;;6081520;23;20017;-84
2023/03/30 13:14:05;;;;;;;3.88;1.45;;;;;;;;;;6096989;23;20013;-83
2023/03/30 13:16:49;;;;;;;3.28;1.10;;;;;;;;;;6119458;23;20459;-83
2023/03/30 13:19:40;;;;;;;6.30;1.50;;;;;;;;;;6146129;23;20025;-82
2023/03/30 13:22:11;;;;;;;3.80;1.52;;;;;;;;;;6117391;23;20022;-83
2023/03/30 13:24:45;;;;;;;5.78;1.80;;;;;;;;;;6144985;23;20415;-81
2023/03/30 13:27:13;;;;;;;2.80;1.25;;;;;;;;;;6117527;23;20345;-82
2023/03/30 13:29:40;;;;;;;4.20;1.35;;;;;;;;;;6144707;23;20428;-83
2023/03/30 13:32:18;;;;;;;3.60;1.55;;;;;;;;;;6117419;23;20089;-83
2023/03/30 13:34:43;;;;;;;5.35;1.58;;;;;;;;;;6145116;23;20355;-83
2023/03/30 13:37:27;;;;;;;3.40;1.35;;;;;;;;;;6117262;23;20013;-83
2023/03/30 13:39:58;;;;;;;4.05;1.75;;;;;;;;;;6145460;23;20017;-84
2023/03/30 13:42:33;;;;;;;5.40;1.88;;;;;;;;;;6093452;23;20030;-84
2023/03/30 13:45:27;;;;;;;4.28;1.30;;;;;;;;;;6145364;23;20513;-83
2023/03/30 13:48:05;;;;;;;6.15;1.50;;;;;;;;;;6075934;23;20026;-85
2023/03/30 13:50:30;;;;;;;;;;;;;;;;;;6146180;23;20029;-83
2023/03/30 13:53:01;;;;;;;4.88;1.50;;;;;;;;;;6156070;23;19919;-82
2023/03/30 13:55:38;;;;;;;4.72;1.02;;;;;;;;;;6119366;23;20025;-81
2023/03/30 13:58:11;;;;;;;3.63;0.80;;;;;;;;;;6094935;23;20009;-81
2023/03/30 14:00:43;;;;;;;3.05;1.25;;;;;;;;;;6096041;23;20044;-81
2023/03/30 14:03:26;;;;;;;2.85;1.02;;;;;;;;;;6096282;23;20010;-82
2023/03/30 14:05:53;;;;;;;3.55;0.90;;;;;;;;;;6095856;23;20013;-82
2023/03/30 14:08:19;;;;;;;4.65;1.35;;;;;;;;;;6120653;23;20044;-81
2023/03/30 14:10:48;;;;;;;3.35;1.27;;;;;;;;;;6146032;23;20116;-82
2023/03/30 14:13:14;;;;;;;4.97;1.30;;;;;;;;;;6147101;23;20117;-82
2023/03/30 14:15:40;;;;;;;3.67;1.30;;;;;;;;;;6119658;23;20014;-82
2023/03/30 14:18:10;;;;;;;2.70;1.20;;;;;;;;;;6147115;23;20013;-81
2023/03/30 14:20:43;;;;;;;3.97;1.10;;;;;;;;;;6119076;23;20085;-82
2023/03/30 14:23:34;;;;;;;3.30;1.15;;;;;;;;;;6120866;23;20459;-82
2023/03/30 14:26:03;;;;;;;4.75;1.52;;;;;;;;;;6145149;23;20020;-82
2023/03/30 14:28:33;;;;;;;4.15;1.50;;;;;;;;;;6120847;23;20749;-81
2023/03/30 14:31:04;;;;;;;3.50;1.30;;;;;;;;;;6145850;23;20041;-82
2023/03/30 14:33:31;;;;;;;3.85;1.38;;;;;;;;;;6097066;23;20040;-82
2023/03/30 14:35:58;;;;;;;3.63;1.50;;;;;;;;;;6094533;23;20016;-82
2023/03/30 14:39:03;;;;;;;5.93;1.52;;;;;;;;;;6121367;23;20024;-82
2023/03/30 14:41:29;;;;;;;3.38;1.40;;;;;;;;;;6001777;23;20679;-82
2023/03/30 14:43:55;;;;;;;3.97;1.60;;;;;;;;;;6002467;23;20027;-82
2023/03/30 14:46:23;;;;;;;3.17;1.50;;;;;;;;;;5973483;23;20451;-82
2023/03/30 14:48:48;;;;;;;5.78;1.70;;;;;;;;;;5975427;23;20094;-82
2023/03/30 14:51:22;;;;;;;4.57;1.70;;;;;;;;;;5973997;23;20020;-81
2023/03/30 14:53:49;;;;;;;2.88;1.20;;;;;;;;;;5998641;23;20024;-81
2023/03/30 14:56:16;;;;;;;3.97;1.40;;;;;;;;;;5997437;23;20030;-82
2023/03/30 14:58:42;;;;;;;3.67;1.45;;;;;;;;;;5975279;23;20023;-82
2023/03/30 15:01:09;;;;;;;5.35;1.95;;;;;;;;;;5973635;23;20015;-82
2023/03/30 15:03:35;;;;;;;;;;;;;;;;;;5952581;23;20127;-81
2023/03/30 15:06:02;;;;;;;3.20;1.50;;;;;;;;;;5997771;23;19938;-82
2023/03/30 15:08:33;;;;;;;4.97;1.50;;;;;;;;;;5952055;23;20106;-81